createdAt,value
2018-07-14T00:02:06.207Z,22.79
2018-07-14T00:05:30.652Z,22.72
2018-07-14T00:08:55.091Z,22.60
2018-07-14T00:12:19.497Z,22.66
2018-07-14T00:15:43.940Z,22.61
2018-07-14T00:19:08.398Z,22.50
2018-07-14T00:22:32.837Z,22.43
2018-07-14T00:26:01.704Z,22.59
2018-07-14T00:29:26.170Z,22.46
2018-07-14T00:32:50.646Z,22.43
2018-07-14T00:36:15.078Z,22.31
2018-07-14T00:39:39.485Z,22.37
2018-07-14T00:43:03.912Z,22.27
2018-07-14T00:46:28.391Z,22.16
2018-07-14T00:49:52.806Z,22.07
2018-07-14T00:53:17.286Z,21.88
2018-07-14T00:56:41.733Z,21.88
2018-07-14T01:00:06.282Z,21.94
2018-07-14T01:03:30.744Z,21.95
2018-07-14T01:06:55.168Z,21.94
2018-07-14T01:10:19.607Z,21.79
2018-07-14T01:13:44.070Z,21.67
2018-07-14T01:17:08.475Z,21.63
2018-07-14T01:20:32.900Z,21.46
2018-07-14T01:23:57.354Z,21.32
2018-07-14T01:27:21.797Z,21.24
2018-07-14T01:30:46.252Z,21.38
2018-07-14T01:34:10.663Z,21.29
2018-07-14T01:37:35.179Z,21.28
2018-07-14T01:40:59.580Z,21.17
2018-07-14T01:44:23.987Z,21.14
2018-07-14T01:47:48.424Z,21.22
2018-07-14T01:51:12.855Z,21.10
2018-07-14T01:54:37.292Z,20.98
2018-07-14T01:58:01.828Z,20.99
2018-07-14T02:01:26.300Z,20.83
2018-07-14T02:04:50.806Z,20.91
2018-07-14T02:08:15.221Z,20.85
2018-07-14T02:11:39.663Z,20.82
2018-07-14T02:15:04.336Z,20.87
2018-07-14T02:18:28.754Z,20.74
2018-07-14T02:21:53.178Z,20.64
2018-07-14T02:25:17.598Z,20.72
2018-07-14T02:28:42.044Z,20.60
2018-07-14T02:32:06.497Z,20.45
2018-07-14T02:35:30.929Z,20.52
2018-07-14T02:38:55.412Z,20.44
2018-07-14T02:42:19.864Z,20.44
2018-07-14T02:45:44.314Z,20.38
2018-07-14T02:49:08.748Z,20.27
2018-07-14T02:52:33.197Z,20.19
2018-07-14T02:55:57.614Z,20.12
2018-07-14T02:59:22.119Z,20.06
2018-07-14T03:02:46.587Z,20.11
2018-07-14T03:06:11.036Z,20.20
2018-07-14T03:09:35.204Z,19.99
2018-07-14T03:12:59.790Z,20.01
2018-07-14T03:16:24.132Z,19.97
2018-07-14T03:19:48.586Z,19.94
2018-07-14T03:23:13.018Z,19.82
2018-07-14T03:26:37.438Z,19.69
2018-07-14T03:30:01.874Z,19.77
2018-07-14T03:33:26.266Z,19.64
2018-07-14T03:36:50.669Z,19.62
2018-07-14T03:40:15.157Z,19.55
2018-07-14T03:43:39.580Z,19.55
2018-07-14T03:47:04.065Z,19.59
2018-07-14T03:50:28.530Z,19.54
2018-07-14T03:53:52.996Z,19.66
2018-07-14T03:57:17.655Z,19.45
2018-07-14T04:00:42.112Z,19.60
2018-07-14T04:04:06.585Z,19.54
2018-07-14T04:07:31.031Z,19.55
2018-07-14T04:10:55.494Z,19.56
2018-07-14T04:14:19.958Z,19.45
2018-07-14T04:17:44.379Z,19.44
2018-07-14T04:21:08.801Z,19.45
2018-07-14T04:24:33.247Z,19.52
2018-07-14T04:27:58.200Z,19.61
2018-07-14T04:31:22.594Z,19.68
2018-07-14T04:34:47.406Z,19.67
2018-07-14T04:38:11.795Z,19.79
2018-07-14T04:41:36.232Z,19.81
2018-07-14T04:45:00.689Z,19.82
2018-07-14T04:48:25.106Z,19.98
2018-07-14T04:51:49.511Z,19.95
2018-07-14T04:55:13.920Z,19.98
2018-07-14T04:58:38.437Z,20.18
2018-07-14T05:02:02.859Z,20.26
2018-07-14T05:05:27.271Z,20.24
2018-07-14T05:08:51.712Z,20.24
2018-07-14T05:12:16.124Z,20.38
2018-07-14T05:15:40.561Z,20.59
2018-07-14T05:19:05.007Z,20.64
2018-07-14T05:22:29.426Z,20.59
2018-07-14T05:25:53.847Z,20.76
2018-07-14T05:29:18.258Z,20.78
2018-07-14T05:32:42.743Z,20.88
2018-07-14T05:36:07.195Z,20.99
2018-07-14T05:39:31.629Z,20.92
2018-07-14T05:42:56.102Z,21.07
2018-07-14T05:46:20.550Z,21.15
2018-07-14T05:49:45.002Z,21.12
2018-07-14T05:53:09.431Z,21.15
2018-07-14T05:56:33.893Z,21.29
2018-07-14T05:59:58.375Z,21.40
2018-07-14T06:03:22.861Z,21.38
2018-07-14T06:06:47.288Z,21.43
2018-07-14T06:10:11.718Z,21.60
2018-07-14T06:13:36.229Z,21.61
2018-07-14T06:17:00.719Z,21.65
2018-07-14T06:20:25.200Z,21.76
2018-07-14T06:23:49.658Z,21.79
2018-07-14T06:27:14.327Z,21.89
2018-07-14T06:30:38.809Z,21.89
2018-07-14T06:34:03.359Z,22.07
2018-07-14T06:37:27.852Z,21.95
2018-07-14T06:40:52.343Z,21.87
2018-07-14T06:44:16.810Z,21.92
2018-07-14T06:47:41.311Z,22.11
2018-07-14T06:51:05.802Z,22.31
2018-07-14T06:54:30.295Z,22.36
2018-07-14T06:57:54.922Z,22.40
2018-07-14T07:01:19.319Z,22.55
2018-07-14T07:04:43.961Z,22.72
2018-07-14T07:08:08.744Z,22.79
2018-07-14T07:11:33.175Z,22.75
2018-07-14T07:14:57.713Z,22.82
2018-07-14T07:18:22.166Z,22.84
2018-07-14T07:21:46.604Z,22.98
2018-07-14T07:25:11.067Z,23.09
2018-07-14T07:28:35.480Z,23.15
2018-07-14T07:31:59.979Z,23.22
2018-07-14T07:35:24.417Z,23.43
2018-07-14T07:38:48.908Z,23.60
2018-07-14T07:42:13.444Z,23.75
2018-07-14T07:45:37.897Z,23.97
2018-07-14T07:49:02.400Z,24.04
2018-07-14T07:52:26.958Z,24.19
2018-07-14T07:55:51.383Z,24.37
2018-07-14T07:59:15.888Z,24.49
2018-07-14T08:02:40.356Z,24.24
2018-07-14T08:06:04.839Z,24.56
2018-07-14T08:09:29.320Z,24.79
2018-07-14T08:12:53.748Z,24.91
2018-07-14T08:16:18.179Z,25.09
2018-07-14T08:19:42.706Z,25.13
2018-07-14T08:23:07.163Z,25.17
2018-07-14T08:26:31.630Z,25.13
2018-07-14T08:29:56.092Z,25.38
2018-07-14T08:33:20.620Z,25.53
2018-07-14T08:36:45.046Z,25.62
2018-07-14T08:40:09.481Z,25.83
2018-07-14T08:43:33.925Z,25.85
2018-07-14T08:46:58.403Z,26.09
2018-07-14T08:50:22.830Z,26.42
2018-07-14T08:53:47.302Z,26.25
2018-07-14T08:57:11.730Z,26.32
2018-07-14T09:00:36.181Z,26.24
2018-07-14T09:04:00.654Z,26.61
2018-07-14T09:07:25.078Z,26.51
2018-07-14T09:10:49.510Z,26.69
2018-07-14T09:14:13.965Z,26.67
2018-07-14T09:17:38.375Z,27.00
2018-07-14T09:21:02.819Z,27.24
2018-07-14T09:24:27.250Z,27.56
2018-07-14T09:27:51.703Z,27.39
2018-07-14T09:31:16.200Z,27.38
2018-07-14T09:34:40.736Z,27.74
2018-07-14T09:38:05.298Z,27.87
2018-07-14T09:41:29.708Z,28.23
2018-07-14T09:44:54.172Z,28.56
2018-07-14T09:48:18.699Z,28.48
2018-07-14T09:51:46.194Z,28.66
2018-07-14T09:55:10.690Z,28.91
2018-07-14T09:58:35.202Z,28.93
2018-07-14T10:01:59.373Z,29.21
2018-07-14T10:05:23.823Z,29.10
2018-07-14T10:08:48.272Z,29.71
2018-07-14T10:12:12.713Z,29.85
2018-07-14T10:15:37.160Z,30.41
2018-07-14T10:19:01.601Z,30.39
2018-07-14T10:22:26.028Z,30.51
2018-07-14T10:25:50.652Z,30.72
2018-07-14T10:29:14.920Z,31.32
2018-07-14T10:32:39.383Z,31.45
2018-07-14T10:36:03.834Z,32.16
2018-07-14T10:39:28.288Z,32.82
2018-07-14T10:42:52.726Z,33.07
2018-07-14T10:46:17.236Z,34.16
2018-07-14T10:49:41.677Z,33.91
2018-07-14T10:53:06.200Z,35.47
2018-07-14T10:56:30.671Z,37.29
2018-07-14T10:59:55.121Z,38.65
2018-07-14T11:03:19.587Z,39.13
2018-07-14T11:06:44.141Z,41.50
2018-07-14T11:10:08.597Z,42.14
2018-07-14T11:13:33.018Z,43.64
2018-07-14T11:16:57.500Z,43.64
2018-07-14T11:20:21.968Z,43.59
2018-07-14T11:23:46.408Z,42.91
2018-07-14T11:27:10.899Z,43.85
2018-07-14T11:30:35.358Z,43.84
2018-07-14T11:33:59.945Z,43.98
2018-07-14T11:37:24.418Z,44.05
2018-07-14T11:40:48.869Z,43.08
2018-07-14T11:44:13.369Z,41.71
2018-07-14T11:47:38.155Z,42.23
2018-07-14T11:51:02.576Z,43.91
2018-07-14T11:54:27.048Z,43.12
2018-07-14T11:57:51.488Z,44.08
2018-07-14T12:01:15.998Z,44.57
2018-07-14T12:04:40.511Z,42.30
2018-07-14T12:08:04.992Z,43.88
2018-07-14T12:11:29.448Z,43.96
2018-07-14T12:14:53.954Z,42.50
2018-07-14T12:18:18.427Z,45.53
2018-07-14T12:21:42.924Z,45.60
2018-07-14T12:25:07.371Z,46.21
2018-07-14T12:28:32.082Z,45.38
2018-07-14T12:31:56.576Z,44.56
2018-07-14T12:35:21.023Z,46.13
2018-07-14T12:38:45.451Z,46.48
2018-07-14T12:42:09.955Z,46.18
2018-07-14T12:45:34.416Z,46.68
2018-07-14T12:48:58.863Z,47.75
2018-07-14T12:52:23.318Z,45.95
2018-07-14T12:55:47.768Z,44.51
2018-07-14T12:59:12.214Z,46.06
2018-07-14T13:02:36.707Z,44.84
2018-07-14T13:06:01.231Z,45.16
2018-07-14T13:09:25.634Z,45.16
2018-07-14T13:12:50.075Z,45.50
2018-07-14T13:16:14.509Z,45.96
2018-07-14T13:19:38.942Z,45.70
2018-07-14T13:23:03.410Z,46.30
2018-07-14T13:26:27.870Z,47.47
2018-07-14T13:29:52.330Z,46.64
2018-07-14T13:33:16.742Z,45.84
2018-07-14T13:36:41.220Z,45.53
2018-07-14T13:40:05.665Z,45.87
2018-07-14T13:43:30.123Z,45.92
2018-07-14T13:46:54.560Z,45.08
2018-07-14T13:50:19.029Z,45.82
2018-07-14T13:53:43.507Z,46.21
2018-07-14T13:57:07.983Z,45.45
2018-07-14T14:00:32.455Z,46.90
2018-07-14T14:03:56.915Z,45.54
2018-07-14T14:07:27.525Z,45.93
2018-07-14T14:10:51.982Z,45.31
2018-07-14T14:14:16.438Z,44.86
2018-07-14T14:17:40.935Z,44.69
2018-07-14T14:21:05.368Z,44.40
2018-07-14T14:24:29.816Z,44.94
2018-07-14T14:27:54.250Z,45.25
2018-07-14T14:31:18.710Z,44.59
2018-07-14T14:34:43.161Z,45.43
2018-07-14T14:38:07.722Z,44.73
2018-07-14T14:41:32.223Z,44.62
2018-07-14T14:44:56.700Z,46.25
2018-07-14T14:48:21.199Z,46.09
2018-07-14T14:51:45.651Z,46.25
2018-07-14T14:55:10.127Z,46.16
2018-07-14T14:58:34.607Z,45.32
2018-07-14T15:01:59.072Z,46.00
2018-07-14T15:05:23.499Z,44.75
2018-07-14T15:08:48.007Z,45.51
2018-07-14T15:12:12.447Z,46.30
2018-07-14T15:15:36.882Z,45.75
2018-07-14T15:19:01.322Z,45.58
2018-07-14T15:22:25.730Z,46.26
2018-07-14T15:25:50.187Z,45.77
2018-07-14T15:29:14.614Z,45.38
2018-07-14T15:32:39.097Z,45.20
2018-07-14T15:36:03.475Z,44.36
2018-07-14T15:39:27.943Z,47.86
2018-07-14T15:42:52.383Z,46.22
2018-07-14T15:46:16.828Z,47.13
2018-07-14T15:49:41.306Z,47.44
2018-07-14T15:53:05.766Z,47.27
2018-07-14T15:56:30.252Z,45.63
2018-07-14T15:59:54.693Z,47.52
2018-07-14T16:03:18.842Z,47.34
2018-07-14T16:06:43.301Z,46.84
2018-07-14T16:10:07.735Z,46.55
2018-07-14T16:13:32.187Z,47.14
2018-07-14T16:16:56.635Z,46.44
2018-07-14T16:20:21.063Z,47.17
2018-07-14T16:23:45.576Z,46.76
2018-07-14T16:27:10.502Z,45.06
2018-07-14T16:30:35.105Z,45.77
2018-07-14T16:33:59.544Z,44.79
2018-07-14T16:37:24.004Z,43.48
2018-07-14T16:40:49.135Z,41.60
2018-07-14T16:44:13.525Z,41.21
2018-07-14T16:47:37.998Z,40.32
2018-07-14T16:51:02.465Z,40.59
2018-07-14T16:54:26.906Z,39.96
2018-07-14T16:57:51.376Z,40.33
2018-07-14T17:01:15.846Z,39.35
2018-07-14T17:04:40.311Z,39.03
2018-07-14T17:08:04.772Z,38.89
2018-07-14T17:11:29.232Z,38.65
2018-07-14T17:14:53.676Z,37.84
2018-07-14T17:18:18.148Z,36.61
2018-07-14T17:21:42.584Z,36.20
2018-07-14T17:25:07.091Z,34.98
2018-07-14T17:28:31.556Z,34.74
2018-07-14T17:31:55.996Z,34.10
2018-07-14T17:35:20.446Z,33.73
2018-07-14T17:38:44.896Z,33.22
2018-07-14T17:42:09.386Z,32.91
2018-07-14T17:45:34.013Z,32.63
2018-07-14T17:48:58.439Z,32.41
2018-07-14T17:52:22.619Z,32.07
2018-07-14T17:55:47.079Z,31.39
2018-07-14T17:59:11.620Z,31.36
2018-07-14T18:02:36.093Z,31.46
2018-07-14T18:06:00.554Z,31.34
2018-07-14T18:09:25.046Z,31.19
2018-07-14T18:12:49.494Z,31.15
2018-07-14T18:16:14.029Z,30.74
2018-07-14T18:19:38.544Z,30.64
2018-07-14T18:23:03.131Z,30.74
2018-07-14T18:26:27.579Z,30.52
2018-07-14T18:29:52.030Z,30.12
2018-07-14T18:33:16.552Z,30.23
2018-07-14T18:36:41.027Z,30.22
2018-07-14T18:40:05.567Z,29.96
2018-07-14T18:43:30.077Z,29.72
2018-07-14T18:46:54.599Z,29.91
2018-07-14T18:50:19.080Z,29.34
2018-07-14T18:53:43.546Z,29.34
2018-07-14T18:57:08.087Z,29.30
2018-07-14T19:00:32.544Z,29.32
2018-07-14T19:03:57.061Z,28.91
2018-07-14T19:07:21.523Z,28.82
2018-07-14T19:10:45.959Z,28.84
2018-07-14T19:14:10.446Z,28.82
2018-07-14T19:17:34.908Z,28.74
2018-07-14T19:20:59.416Z,28.46
2018-07-14T19:24:23.839Z,28.42
2018-07-14T19:27:48.301Z,28.31
2018-07-14T19:31:12.454Z,28.16
2018-07-14T19:34:37.036Z,28.06
2018-07-14T19:38:01.445Z,27.83
2018-07-14T19:41:25.916Z,27.79
2018-07-14T19:44:50.323Z,27.67
2018-07-14T19:48:15.579Z,27.50
2018-07-14T19:51:40.025Z,27.36
2018-07-14T19:55:04.603Z,27.03
2018-07-14T19:58:29.096Z,27.00
2018-07-14T20:01:53.539Z,26.77
2018-07-14T20:05:17.964Z,26.70
2018-07-14T20:08:42.391Z,26.56
2018-07-14T20:12:07.040Z,26.37
2018-07-14T20:15:31.458Z,26.39
2018-07-14T20:18:55.943Z,26.24
2018-07-14T20:22:20.399Z,26.06
2018-07-14T20:25:44.806Z,25.95
2018-07-14T20:29:09.280Z,25.90
2018-07-14T20:32:33.709Z,25.92
2018-07-14T20:35:58.164Z,25.93
2018-07-14T20:39:22.616Z,25.85
2018-07-14T20:42:47.085Z,25.71
2018-07-14T20:46:11.565Z,25.48
2018-07-14T20:49:35.996Z,25.61
2018-07-14T20:53:00.434Z,25.48
2018-07-14T20:56:24.917Z,25.32
2018-07-14T20:59:49.379Z,25.46
2018-07-14T21:03:13.869Z,25.43
2018-07-14T21:06:38.311Z,25.37
2018-07-14T21:10:02.833Z,25.24
2018-07-14T21:13:27.324Z,25.37
2018-07-14T21:16:51.842Z,25.07
2018-07-14T21:20:16.259Z,25.00
2018-07-14T21:23:40.730Z,24.92
2018-07-14T21:27:05.452Z,24.74
2018-07-14T21:30:29.914Z,24.52
2018-07-14T21:33:54.403Z,24.31
2018-07-14T21:37:18.845Z,24.45
2018-07-14T21:40:43.309Z,24.28
2018-07-14T21:44:07.764Z,24.26
2018-07-14T21:47:32.185Z,24.23
2018-07-14T21:50:56.632Z,23.98
2018-07-14T21:54:21.118Z,23.91
2018-07-14T21:57:45.615Z,23.87
2018-07-14T22:01:15.464Z,23.82
2018-07-14T22:04:39.930Z,23.73
2018-07-14T22:08:04.429Z,23.54
2018-07-14T22:11:28.936Z,23.62
2018-07-14T22:14:53.463Z,23.44
2018-07-14T22:18:17.922Z,23.38
2018-07-14T22:21:42.365Z,23.28
2018-07-14T22:25:06.808Z,23.20
2018-07-14T22:28:31.261Z,23.24
2018-07-14T22:31:55.708Z,23.08
2018-07-14T22:35:20.187Z,23.03
2018-07-14T22:38:44.619Z,23.04
2018-07-14T22:42:09.078Z,23.01
2018-07-14T22:45:33.570Z,22.85
2018-07-14T22:48:58.006Z,22.73
2018-07-14T22:52:22.416Z,22.66
2018-07-14T22:55:46.841Z,22.81
2018-07-14T22:59:11.300Z,22.89
2018-07-14T23:02:35.713Z,23.07
2018-07-14T23:06:00.161Z,22.95
2018-07-14T23:09:24.610Z,22.94
2018-07-14T23:12:49.038Z,22.99
2018-07-14T23:16:13.571Z,23.00
2018-07-14T23:19:37.984Z,22.81
2018-07-14T23:23:02.415Z,22.84
2018-07-14T23:26:26.835Z,22.80
2018-07-14T23:29:51.270Z,22.73
2018-07-14T23:33:15.751Z,22.70
2018-07-14T23:36:40.241Z,22.70
2018-07-14T23:40:04.887Z,22.57
2018-07-14T23:43:29.344Z,22.57
2018-07-14T23:46:53.814Z,22.61
2018-07-14T23:50:18.220Z,22.73
2018-07-14T23:53:42.693Z,22.63
2018-07-14T23:57:07.708Z,22.78
